Haysville, KS

1:17 AM CST on February 11, 2016 (GMT -0600)
Southwest Wichita | | Change Station
CLOSE
Current Station
Personal Weather Station
Location: Wichita, KS
Elevation: 1301 ft
Nearby Weather Stations

Elev 1301 ft 37.58 °N, 97.40 °W | Updated 1 second ago

Partly Cloudy
Partly Cloudy
38.8 °F
Feels Like 32 °F
N
11.0
Wind Variable Wind from North
Gusts 13.0 mph

Today
High -- | Low -- °F
--% Chance of Precip.
Yesterday
High -- | Low -- °F
Precip. -- in
Pressure 30.03 in
Visibility 10.0 miles
Clouds Scattered Clouds 25000 ft
Windchill 32 °F
Dew Point 30 °F
Humidity 70%
Rainfall 0.00 in
Snow Depth Not available.
7:23 AM 6:04 PM
Waxing Crescent, 10% visible
METAR KICT 110653Z 35007KT 10SM SCT250 06/M01 A3002 RMK AO2 SLP168 T00561011
Pressure 30.03 in
Visibility 10.0 miles
Clouds Scattered Clouds 25000 ft
Windchill 32 °F
Dew Point 30 °F
Humidity 70%
Rainfall 0.00 in
Snow Depth Not available.
7:23 AM 6:04 PM
Waxing Crescent, 10% visible
METAR KICT 110653Z 35007KT 10SM SCT250 06/M01 A3002 RMK AO2 SLP168 T00561011

10-Day Weather Forecast

Almanac

Astronomy

Feb. 11, 2016 Rise Set
Actual Time
Civil Twilight
Nautical Twilight
Astronomical Twilight
Moon
Length of Visible Light
Length of Day
Tomorrow will be .
, % of the Moon is Illuminated

Today's Extremes

State Highs State Lows

Community

WunderPhotos

Upload Photos

1,892,030 photos uploaded!

WunderBlog® & News

Nearby

Air Quality

  Air Quality AQ Index Pollutant
Not available.

Snow Depth

Station Depth Elevation

Earthquake Activity

City Distance Mag. Time & Date
Minimum magnitude displayed is 2.5.

Coastal Water Temperatures

Place Temperature

Stations

Nearby Weather Stations

Station Location Temp. Windchill Dew Point Humidity Wind Precip. Elev Updated Type
                   

Watches & Warnings

There are currently no watches in effect.